sensor_id;sensor_type;location;lat;lon;timestamp;P1;durP1;ratioP1;P2;durP2;ratioP2
9838;SDS011;4958;48.150;11.506;2024-02-26T00:04:54;2.80;;;2.60;;
9838;SDS011;4958;48.150;11.506;2024-02-26T00:07:30;2.70;;;2.43;;
9838;SDS011;4958;48.150;11.506;2024-02-26T00:10:01;2.50;;;2.30;;
9838;SDS011;4958;48.150;11.506;2024-02-26T00:12:37;3.00;;;2.67;;
9838;SDS011;4958;48.150;11.506;2024-02-26T00:15:07;3.10;;;2.80;;
9838;SDS011;4958;48.150;11.506;2024-02-26T00:21:21;2.53;;;2.33;;
9838;SDS011;4958;48.150;11.506;2024-02-26T00:27:20;5.03;;;2.80;;
9838;SDS011;4958;48.150;11.506;2024-02-26T00:30:10;2.93;;;2.60;;
9838;SDS011;4958;48.150;11.506;2024-02-26T00:32:48;2.47;;;2.27;;
9838;SDS011;4958;48.150;11.506;2024-02-26T00:35:35;2.67;;;2.47;;
9838;SDS011;4958;48.150;11.506;2024-02-26T00:38:05;2.70;;;2.50;;
9838;SDS011;4958;48.150;11.506;2024-02-26T00:40:52;4.07;;;2.43;;
9838;SDS011;4958;48.150;11.506;2024-02-26T00:43:21;3.40;;;2.17;;
9838;SDS011;4958;48.150;11.506;2024-02-26T00:46:15;4.07;;;2.40;;
9838;SDS011;4958;48.150;11.506;2024-02-26T00:48:54;2.83;;;2.27;;
9838;SDS011;4958;48.150;11.506;2024-02-26T00:54:26;2.43;;;2.23;;
9838;SDS011;4958;48.150;11.506;2024-02-26T00:57:22;2.33;;;2.07;;
9838;SDS011;4958;48.150;11.506;2024-02-26T01:00:08;2.83;;;2.40;;
9838;SDS011;4958;48.150;11.506;2024-02-26T01:02:55;2.93;;;2.40;;
9838;SDS011;4958;48.150;11.506;2024-02-26T01:05:32;2.53;;;2.33;;
9838;SDS011;4958;48.150;11.506;2024-02-26T01:08:16;3.27;;;2.37;;
9838;SDS011;4958;48.150;11.506;2024-02-26T01:10:48;2.43;;;2.17;;
9838;SDS011;4958;48.150;11.506;2024-02-26T01:16:35;4.20;;;2.50;;
9838;SDS011;4958;48.150;11.506;2024-02-26T01:19:24;2.30;;;2.10;;
9838;SDS011;4958;48.150;11.506;2024-02-26T01:25:49;3.20;;;2.50;;
9838;SDS011;4958;48.150;11.506;2024-02-26T01:28:56;3.93;;;2.60;;
9838;SDS011;4958;48.150;11.506;2024-02-26T01:31:54;2.80;;;2.20;;
9838;SDS011;4958;48.150;11.506;2024-02-26T01:34:39;4.47;;;2.20;;
9838;SDS011;4958;48.150;11.506;2024-02-26T01:37:27;2.60;;;2.40;;
9838;SDS011;4958;48.150;11.506;2024-02-26T01:40:16;2.73;;;2.50;;
9838;SDS011;4958;48.150;11.506;2024-02-26T01:42:53;3.20;;;2.30;;
9838;SDS011;4958;48.150;11.506;2024-02-26T01:45:24;2.83;;;2.40;;
9838;SDS011;4958;48.150;11.506;2024-02-26T01:48:48;2.73;;;2.37;;
9838;SDS011;4958;48.150;11.506;2024-02-26T01:54:40;3.10;;;2.27;;
9838;SDS011;4958;48.150;11.506;2024-02-26T01:57:37;2.40;;;2.20;;
9838;SDS011;4958;48.150;11.506;2024-02-26T02:00:30;2.60;;;2.40;;
9838;SDS011;4958;48.150;11.506;2024-02-26T02:04:28;3.17;;;2.60;;
9838;SDS011;4958;48.150;11.506;2024-02-26T02:06:20;2.53;;;2.33;;
9838;SDS011;4958;48.150;11.506;2024-02-26T02:09:24;2.60;;;2.40;;
9838;SDS011;4958;48.150;11.506;2024-02-26T02:12:37;4.80;;;2.53;;
9838;SDS011;4958;48.150;11.506;2024-02-26T02:28:37;2.50;;;2.10;;
9838;SDS011;4958;48.150;11.506;2024-02-26T02:31:18;2.23;;;1.97;;
9838;SDS011;4958;48.150;11.506;2024-02-26T02:34:47;2.43;;;2.23;;
9838;SDS011;4958;48.150;11.506;2024-02-26T02:58:58;2.37;;;2.10;;
9838;SDS011;4958;48.150;11.506;2024-02-26T03:09:37;2.17;;;1.97;;
9838;SDS011;4958;48.150;11.506;2024-02-26T03:11:55;2.30;;;2.00;;
9838;SDS011;4958;48.150;11.506;2024-02-26T03:39:37;1.87;;;1.77;;
9838;SDS011;4958;48.150;11.506;2024-02-26T03:49:55;2.10;;;1.90;;
9838;SDS011;4958;48.150;11.506;2024-02-26T03:53:14;2.10;;;1.90;;
9838;SDS011;4958;48.150;11.506;2024-02-26T04:06:17;2.20;;;2.00;;
9838;SDS011;4958;48.150;11.506;2024-02-26T04:16:03;2.37;;;2.07;;
9838;SDS011;4958;48.150;11.506;2024-02-26T04:36:03;1.97;;;1.77;;
9838;SDS011;4958;48.150;11.506;2024-02-26T04:39:24;2.80;;;1.90;;
9838;SDS011;4958;48.150;11.506;2024-02-26T04:45:40;3.00;;;1.93;;
9838;SDS011;4958;48.150;11.506;2024-02-26T04:56:00;2.23;;;1.93;;
9838;SDS011;4958;48.150;11.506;2024-02-26T05:02:28;2.53;;;1.83;;
9838;SDS011;4958;48.150;11.506;2024-02-26T05:05:51;2.50;;;1.90;;
9838;SDS011;4958;48.150;11.506;2024-02-26T05:12:55;1.90;;;1.80;;
9838;SDS011;4958;48.150;11.506;2024-02-26T05:15:50;1.70;;;1.60;;
9838;SDS011;4958;48.150;11.506;2024-02-26T05:25:33;2.00;;;1.70;;
9838;SDS011;4958;48.150;11.506;2024-02-26T05:28:39;2.27;;;1.63;;
9838;SDS011;4958;48.150;11.506;2024-02-26T05:31:45;1.60;;;1.50;;
9838;SDS011;4958;48.150;11.506;2024-02-26T05:41:19;2.33;;;1.77;;
9838;SDS011;4958;48.150;11.506;2024-02-26T05:47:35;1.57;;;1.47;;
9838;SDS011;4958;48.150;11.506;2024-02-26T05:50:50;1.60;;;1.40;;
9838;SDS011;4958;48.150;11.506;2024-02-26T06:10:33;2.07;;;1.70;;
9838;SDS011;4958;48.150;11.506;2024-02-26T06:13:44;2.40;;;1.67;;
9838;SDS011;4958;48.150;11.506;2024-02-26T06:16:35;2.33;;;1.50;;
9838;SDS011;4958;48.150;11.506;2024-02-26T06:19:14;2.63;;;1.53;;
9838;SDS011;4958;48.150;11.506;2024-02-26T06:21:46;2.27;;;2.00;;
9838;SDS011;4958;48.150;11.506;2024-02-26T06:24:31;7.13;;;2.73;;
9838;SDS011;4958;48.150;11.506;2024-02-26T06:27:27;4.80;;;3.23;;
9838;SDS011;4958;48.150;11.506;2024-02-26T06:30:17;13.20;;;8.10;;
9838;SDS011;4958;48.150;11.506;2024-02-26T06:41:59;15.37;;;3.40;;
9838;SDS011;4958;48.150;11.506;2024-02-26T06:48:43;9.37;;;2.70;;
9838;SDS011;4958;48.150;11.506;2024-02-26T06:51:48;9.53;;;2.80;;
9838;SDS011;4958;48.150;11.506;2024-02-26T06:54:41;9.20;;;2.87;;
9838;SDS011;4958;48.150;11.506;2024-02-26T07:46:37;10.90;;;3.50;;
9838;SDS011;4958;48.150;11.506;2024-02-26T07:49:42;14.77;;;4.77;;
9838;SDS011;4958;48.150;11.506;2024-02-26T07:52:44;12.63;;;4.13;;
9838;SDS011;4958;48.150;11.506;2024-02-26T07:55:55;13.40;;;3.93;;
9838;SDS011;4958;48.150;11.506;2024-02-26T08:01:13;9.77;;;3.70;;
9838;SDS011;4958;48.150;11.506;2024-02-26T08:02:14;9.63;;;4.00;;
9838;SDS011;4958;48.150;11.506;2024-02-26T08:05:11;6.97;;;4.50;;
9838;SDS011;4958;48.150;11.506;2024-02-26T08:11:21;6.67;;;4.23;;
9838;SDS011;4958;48.150;11.506;2024-02-26T08:36:48;8.93;;;5.17;;
9838;SDS011;4958;48.150;11.506;2024-02-26T08:39:31;13.50;;;4.37;;
9838;SDS011;4958;48.150;11.506;2024-02-26T08:42:28;7.33;;;4.30;;
9838;SDS011;4958;48.150;11.506;2024-02-26T08:45:24;12.20;;;3.53;;
9838;SDS011;4958;48.150;11.506;2024-02-26T08:47:52;12.67;;;4.00;;
9838;SDS011;4958;48.150;11.506;2024-02-26T08:50:18;5.23;;;3.50;;
9838;SDS011;4958;48.150;11.506;2024-02-26T08:52:46;11.17;;;3.57;;
9838;SDS011;4958;48.150;11.506;2024-02-26T08:55:21;11.87;;;3.43;;
9838;SDS011;4958;48.150;11.506;2024-02-26T08:57:50;6.83;;;3.73;;
9838;SDS011;4958;48.150;11.506;2024-02-26T09:03:10;10.33;;;3.87;;
9838;SDS011;4958;48.150;11.506;2024-02-26T09:13:13;12.40;;;4.07;;
9838;SDS011;4958;48.150;11.506;2024-02-26T09:16:27;13.43;;;4.10;;
9838;SDS011;4958;48.150;11.506;2024-02-26T09:36:32;14.50;;;3.87;;
9838;SDS011;4958;48.150;11.506;2024-02-26T09:45:25;7.73;;;3.30;;
9838;SDS011;4958;48.150;11.506;2024-02-26T09:47:58;6.57;;;2.83;;
9838;SDS011;4958;48.150;11.506;2024-02-26T09:54:32;6.17;;;2.77;;
9838;SDS011;4958;48.150;11.506;2024-02-26T10:00:39;2.43;;;2.10;;
9838;SDS011;4958;48.150;11.506;2024-02-26T10:03:47;4.47;;;2.23;;
9838;SDS011;4958;48.150;11.506;2024-02-26T10:06:44;4.83;;;2.57;;
9838;SDS011;4958;48.150;11.506;2024-02-26T10:09:31;9.80;;;2.37;;
9838;SDS011;4958;48.150;11.506;2024-02-26T10:12:33;2.77;;;1.90;;
9838;SDS011;4958;48.150;11.506;2024-02-26T10:18:58;1.50;;;1.27;;
9838;SDS011;4958;48.150;11.506;2024-02-26T10:21:34;5.00;;;1.93;;
9838;SDS011;4958;48.150;11.506;2024-02-26T10:24:15;4.43;;;1.80;;
9838;SDS011;4958;48.150;11.506;2024-02-26T10:26:45;4.00;;;1.90;;
9838;SDS011;4958;48.150;11.506;2024-02-26T10:29:15;3.40;;;2.20;;
9838;SDS011;4958;48.150;11.506;2024-02-26T10:31:41;4.87;;;2.00;;
9838;SDS011;4958;48.150;11.506;2024-02-26T10:34:08;3.83;;;2.30;;
9838;SDS011;4958;48.150;11.506;2024-02-26T10:36:39;7.63;;;2.20;;
9838;SDS011;4958;48.150;11.506;2024-02-26T10:39:07;6.10;;;2.03;;
9838;SDS011;4958;48.150;11.506;2024-02-26T10:41:34;4.23;;;2.20;;
9838;SDS011;4958;48.150;11.506;2024-02-26T10:44:05;3.17;;;1.63;;
9838;SDS011;4958;48.150;11.506;2024-02-26T10:46:37;2.13;;;1.50;;
9838;SDS011;4958;48.150;11.506;2024-02-26T10:49:04;2.37;;;1.50;;
9838;SDS011;4958;48.150;11.506;2024-02-26T10:51:33;2.17;;;1.43;;
9838;SDS011;4958;48.150;11.506;2024-02-26T10:54:04;2.20;;;1.47;;
9838;SDS011;4958;48.150;11.506;2024-02-26T10:56:35;1.67;;;1.50;;
9838;SDS011;4958;48.150;11.506;2024-02-26T10:59:07;3.97;;;1.70;;
9838;SDS011;4958;48.150;11.506;2024-02-26T11:05:03;1.53;;;1.37;;
9838;SDS011;4958;48.150;11.506;2024-02-26T11:21:43;1.10;;;1.00;;
9838;SDS011;4958;48.150;11.506;2024-02-26T11:24:14;1.97;;;1.10;;
9838;SDS011;4958;48.150;11.506;2024-02-26T11:27:23;2.30;;;1.43;;
9838;SDS011;4958;48.150;11.506;2024-02-26T11:30:39;3.30;;;1.30;;
9838;SDS011;4958;48.150;11.506;2024-02-26T12:10:26;3.97;;;1.35;;
9838;SDS011;4958;48.150;11.506;2024-02-26T12:16:12;2.05;;;1.10;;
9838;SDS011;4958;48.150;11.506;2024-02-26T12:25:50;1.80;;;0.95;;
9838;SDS011;4958;48.150;11.506;2024-02-26T12:29:17;1.95;;;1.00;;
9838;SDS011;4958;48.150;11.506;2024-02-26T12:32:25;3.70;;;1.38;;
9838;SDS011;4958;48.150;11.506;2024-02-26T12:42:56;1.55;;;0.80;;
9838;SDS011;4958;48.150;11.506;2024-02-26T12:49:00;1.35;;;1.10;;
9838;SDS011;4958;48.150;11.506;2024-02-26T12:51:30;1.90;;;0.82;;
9838;SDS011;4958;48.150;11.506;2024-02-26T12:54:11;1.10;;;1.02;;
9838;SDS011;4958;48.150;11.506;2024-02-26T13:00:03;2.85;;;1.20;;
9838;SDS011;4958;48.150;11.506;2024-02-26T13:02:45;2.08;;;1.02;;
9838;SDS011;4958;48.150;11.506;2024-02-26T13:05:27;1.98;;;1.30;;
9838;SDS011;4958;48.150;11.506;2024-02-26T13:07:56;1.20;;;1.08;;
9838;SDS011;4958;48.150;11.506;2024-02-26T13:10:42;14.70;;;3.03;;
9838;SDS011;4958;48.150;11.506;2024-02-26T13:13:27;10.35;;;2.30;;
9838;SDS011;4958;48.150;11.506;2024-02-26T13:30:09;4.05;;;1.40;;
9838;SDS011;4958;48.150;11.506;2024-02-26T13:33:45;3.08;;;1.27;;
9838;SDS011;4958;48.150;11.506;2024-02-26T13:36:39;7.47;;;1.55;;
9838;SDS011;4958;48.150;11.506;2024-02-26T13:42:22;8.07;;;1.40;;
9838;SDS011;4958;48.150;11.506;2024-02-26T13:45:16;7.60;;;1.80;;
9838;SDS011;4958;48.150;11.506;2024-02-26T13:55:07;6.40;;;1.63;;
9838;SDS011;4958;48.150;11.506;2024-02-26T14:01:43;2.20;;;1.42;;
9838;SDS011;4958;48.150;11.506;2024-02-26T14:38:06;2.15;;;0.95;;
9838;SDS011;4958;48.150;11.506;2024-02-26T14:40:39;2.55;;;1.10;;
9838;SDS011;4958;48.150;11.506;2024-02-26T14:43:12;2.43;;;0.90;;
9838;SDS011;4958;48.150;11.506;2024-02-26T14:45:55;1.93;;;0.83;;
9838;SDS011;4958;48.150;11.506;2024-02-26T14:48:24;1.77;;;1.03;;
9838;SDS011;4958;48.150;11.506;2024-02-26T14:51:04;2.77;;;1.13;;
9838;SDS011;4958;48.150;11.506;2024-02-26T14:54:10;1.55;;;1.27;;
9838;SDS011;4958;48.150;11.506;2024-02-26T14:56:37;1.93;;;1.30;;
9838;SDS011;4958;48.150;11.506;2024-02-26T14:59:19;2.50;;;1.40;;
9838;SDS011;4958;48.150;11.506;2024-02-26T15:01:51;2.97;;;1.43;;
9838;SDS011;4958;48.150;11.506;2024-02-26T15:04:17;3.57;;;1.30;;
9838;SDS011;4958;48.150;11.506;2024-02-26T15:06:51;2.60;;;1.50;;
9838;SDS011;4958;48.150;11.506;2024-02-26T15:09:21;2.00;;;1.63;;
9838;SDS011;4958;48.150;11.506;2024-02-26T15:14:49;2.23;;;1.90;;
9838;SDS011;4958;48.150;11.506;2024-02-26T15:17:50;2.10;;;1.90;;
9838;SDS011;4958;48.150;11.506;2024-02-26T15:20:30;3.10;;;1.77;;
9838;SDS011;4958;48.150;11.506;2024-02-26T15:23:02;4.37;;;1.90;;
9838;SDS011;4958;48.150;11.506;2024-02-26T15:25:40;3.57;;;2.17;;
9838;SDS011;4958;48.150;11.506;2024-02-26T15:28:30;4.77;;;1.93;;
9838;SDS011;4958;48.150;11.506;2024-02-26T15:31:12;6.87;;;2.17;;
9838;SDS011;4958;48.150;11.506;2024-02-26T15:33:55;3.70;;;2.10;;
9838;SDS011;4958;48.150;11.506;2024-02-26T15:39:30;3.90;;;1.80;;
9838;SDS011;4958;48.150;11.506;2024-02-26T15:48:22;2.50;;;2.30;;
9838;SDS011;4958;48.150;11.506;2024-02-26T15:55:01;2.93;;;2.03;;
9838;SDS011;4958;48.150;11.506;2024-02-26T15:58:17;4.13;;;2.30;;
9838;SDS011;4958;48.150;11.506;2024-02-26T16:01:27;5.07;;;2.00;;
9838;SDS011;4958;48.150;11.506;2024-02-26T16:04:30;2.27;;;2.00;;
9838;SDS011;4958;48.150;11.506;2024-02-26T16:15:53;2.03;;;1.70;;
9838;SDS011;4958;48.150;11.506;2024-02-26T16:31:10;2.87;;;1.73;;
9838;SDS011;4958;48.150;11.506;2024-02-26T16:34:15;3.77;;;1.80;;
9838;SDS011;4958;48.150;11.506;2024-02-26T16:36:56;4.70;;;1.67;;
9838;SDS011;4958;48.150;11.506;2024-02-26T17:09:43;2.57;;;1.83;;
9838;SDS011;4958;48.150;11.506;2024-02-26T17:22:53;2.50;;;2.30;;
9838;SDS011;4958;48.150;11.506;2024-02-26T17:25:36;4.20;;;2.03;;
9838;SDS011;4958;48.150;11.506;2024-02-26T17:28:54;2.30;;;2.10;;
9838;SDS011;4958;48.150;11.506;2024-02-26T17:31:44;2.47;;;2.27;;
9838;SDS011;4958;48.150;11.506;2024-02-26T17:38:10;2.23;;;2.03;;
9838;SDS011;4958;48.150;11.506;2024-02-26T17:44:10;5.10;;;4.27;;
9838;SDS011;4958;48.150;11.506;2024-02-26T17:47:04;5.00;;;3.60;;
9838;SDS011;4958;48.150;11.506;2024-02-26T17:50:19;4.50;;;2.57;;
9838;SDS011;4958;48.150;11.506;2024-02-26T17:52:54;2.80;;;2.60;;
9838;SDS011;4958;48.150;11.506;2024-02-26T17:55:55;4.23;;;2.80;;
9838;SDS011;4958;48.150;11.506;2024-02-26T17:58:42;3.00;;;2.70;;
9838;SDS011;4958;48.150;11.506;2024-02-26T18:01:54;3.37;;;2.93;;
9838;SDS011;4958;48.150;11.506;2024-02-26T18:05:02;3.13;;;2.60;;
9838;SDS011;4958;48.150;11.506;2024-02-26T18:07:53;2.90;;;2.13;;
9838;SDS011;4958;48.150;11.506;2024-02-26T18:11:45;3.13;;;2.50;;
9838;SDS011;4958;48.150;11.506;2024-02-26T18:16:56;3.67;;;2.33;;
9838;SDS011;4958;48.150;11.506;2024-02-26T18:19:48;2.90;;;2.20;;
9838;SDS011;4958;48.150;11.506;2024-02-26T18:22:36;5.07;;;2.67;;
9838;SDS011;4958;48.150;11.506;2024-02-26T18:25:37;3.80;;;2.90;;
9838;SDS011;4958;48.150;11.506;2024-02-26T18:28:29;3.87;;;2.83;;
9838;SDS011;4958;48.150;11.506;2024-02-26T18:31:32;5.50;;;4.20;;
9838;SDS011;4958;48.150;11.506;2024-02-26T18:34:21;6.87;;;3.93;;
9838;SDS011;4958;48.150;11.506;2024-02-26T18:37:23;4.97;;;3.40;;
9838;SDS011;4958;48.150;11.506;2024-02-26T18:40:16;4.90;;;2.57;;
9838;SDS011;4958;48.150;11.506;2024-02-26T18:43:09;3.30;;;2.40;;
9838;SDS011;4958;48.150;11.506;2024-02-26T18:45:56;3.53;;;2.83;;
9838;SDS011;4958;48.150;11.506;2024-02-26T18:49:27;3.20;;;2.90;;
9838;SDS011;4958;48.150;11.506;2024-02-26T18:52:13;4.03;;;2.80;;
9838;SDS011;4958;48.150;11.506;2024-02-26T19:15:20;3.13;;;2.17;;
9838;SDS011;4958;48.150;11.506;2024-02-26T19:18:22;4.17;;;2.60;;
9838;SDS011;4958;48.150;11.506;2024-02-26T19:21:17;2.97;;;2.60;;
9838;SDS011;4958;48.150;11.506;2024-02-26T19:26:06;2.60;;;2.40;;
9838;SDS011;4958;48.150;11.506;2024-02-26T19:27:46;3.93;;;2.83;;
9838;SDS011;4958;48.150;11.506;2024-02-26T19:33:33;4.73;;;3.10;;
9838;SDS011;4958;48.150;11.506;2024-02-26T19:36:25;3.47;;;3.17;;
9838;SDS011;4958;48.150;11.506;2024-02-26T19:38:55;4.57;;;3.10;;
9838;SDS011;4958;48.150;11.506;2024-02-26T19:41:21;3.93;;;3.33;;
9838;SDS011;4958;48.150;11.506;2024-02-26T19:43:49;3.47;;;3.17;;
9838;SDS011;4958;48.150;11.506;2024-02-26T19:46:15;4.00;;;3.07;;
9838;SDS011;4958;48.150;11.506;2024-02-26T19:48:44;3.97;;;3.37;;
9838;SDS011;4958;48.150;11.506;2024-02-26T19:51:14;4.43;;;3.83;;
9838;SDS011;4958;48.150;11.506;2024-02-26T19:53:41;3.53;;;3.00;;
9838;SDS011;4958;48.150;11.506;2024-02-26T19:56:08;3.70;;;3.30;;
9838;SDS011;4958;48.150;11.506;2024-02-26T19:58:35;4.00;;;3.60;;
9838;SDS011;4958;48.150;11.506;2024-02-26T20:01:03;5.47;;;3.40;;
9838;SDS011;4958;48.150;11.506;2024-02-26T20:03:32;3.43;;;3.13;;
9838;SDS011;4958;48.150;11.506;2024-02-26T20:06:01;4.70;;;3.07;;
9838;SDS011;4958;48.150;11.506;2024-02-26T20:08:30;3.33;;;3.03;;
9838;SDS011;4958;48.150;11.506;2024-02-26T20:10:56;4.90;;;3.23;;
9838;SDS011;4958;48.150;11.506;2024-02-26T20:13:23;3.97;;;3.33;;
9838;SDS011;4958;48.150;11.506;2024-02-26T20:15:52;3.87;;;3.37;;
9838;SDS011;4958;48.150;11.506;2024-02-26T20:18:20;3.80;;;3.10;;
9838;SDS011;4958;48.150;11.506;2024-02-26T20:20:47;4.30;;;3.30;;
9838;SDS011;4958;48.150;11.506;2024-02-26T20:23:18;4.80;;;3.40;;
9838;SDS011;4958;48.150;11.506;2024-02-26T20:25:44;4.23;;;3.70;;
9838;SDS011;4958;48.150;11.506;2024-02-26T20:28:11;5.93;;;3.70;;
9838;SDS011;4958;48.150;11.506;2024-02-26T20:30:37;4.20;;;3.53;;
9838;SDS011;4958;48.150;11.506;2024-02-26T20:33:04;4.33;;;3.10;;
9838;SDS011;4958;48.150;11.506;2024-02-26T20:35:32;3.90;;;3.50;;
9838;SDS011;4958;48.150;11.506;2024-02-26T20:38:00;5.70;;;3.77;;
9838;SDS011;4958;48.150;11.506;2024-02-26T20:40:26;4.30;;;3.53;;
9838;SDS011;4958;48.150;11.506;2024-02-26T20:42:53;4.93;;;3.40;;
9838;SDS011;4958;48.150;11.506;2024-02-26T20:45:19;5.23;;;3.60;;
9838;SDS011;4958;48.150;11.506;2024-02-26T20:47:46;4.70;;;3.37;;
9838;SDS011;4958;48.150;11.506;2024-02-26T20:50:14;3.83;;;3.47;;
9838;SDS011;4958;48.150;11.506;2024-02-26T20:52:44;5.90;;;3.37;;
9838;SDS011;4958;48.150;11.506;2024-02-26T20:55:11;3.97;;;3.10;;
9838;SDS011;4958;48.150;11.506;2024-02-26T20:57:39;4.50;;;3.20;;
9838;SDS011;4958;48.150;11.506;2024-02-26T21:00:06;4.70;;;3.30;;
9838;SDS011;4958;48.150;11.506;2024-02-26T21:02:36;4.20;;;3.23;;
9838;SDS011;4958;48.150;11.506;2024-02-26T21:05:04;3.33;;;3.03;;
9838;SDS011;4958;48.150;11.506;2024-02-26T21:07:37;3.77;;;2.90;;
9838;SDS011;4958;48.150;11.506;2024-02-26T21:10:06;5.17;;;3.00;;
9838;SDS011;4958;48.150;11.506;2024-02-26T21:12:39;4.43;;;3.40;;
9838;SDS011;4958;48.150;11.506;2024-02-26T21:15:16;3.20;;;2.90;;
9838;SDS011;4958;48.150;11.506;2024-02-26T21:17:43;6.33;;;4.00;;
9838;SDS011;4958;48.150;11.506;2024-02-26T21:20:20;3.10;;;2.80;;
9838;SDS011;4958;48.150;11.506;2024-02-26T21:40:38;3.43;;;2.80;;
9838;SDS011;4958;48.150;11.506;2024-02-26T21:43:38;5.80;;;3.00;;
9838;SDS011;4958;48.150;11.506;2024-02-26T21:46:39;4.47;;;2.70;;
9838;SDS011;4958;48.150;11.506;2024-02-26T21:49:57;2.83;;;2.53;;
9838;SDS011;4958;48.150;11.506;2024-02-26T22:16:08;4.77;;;3.53;;
9838;SDS011;4958;48.150;11.506;2024-02-26T22:38:04;5.33;;;3.30;;
9838;SDS011;4958;48.150;11.506;2024-02-26T22:39:55;4.20;;;3.80;;
9838;SDS011;4958;48.150;11.506;2024-02-26T22:53:10;4.40;;;4.00;;
9838;SDS011;4958;48.150;11.506;2024-02-26T22:56:52;4.30;;;3.83;;
9838;SDS011;4958;48.150;11.506;2024-02-26T23:03:31;5.73;;;4.30;;
9838;SDS011;4958;48.150;11.506;2024-02-26T23:20:29;4.90;;;4.40;;
9838;SDS011;4958;48.150;11.506;2024-02-26T23:33:12;5.47;;;4.80;;
9838;SDS011;4958;48.150;11.506;2024-02-26T23:42:58;5.27;;;4.77;;
9838;SDS011;4958;48.150;11.506;2024-02-26T23:49:45;5.53;;;5.03;;
9838;SDS011;4958;48.150;11.506;2024-02-26T23:52:41;5.40;;;4.90;;
9838;SDS011;4958;48.150;11.506;2024-02-26T23:55:31;6.20;;;5.33;;
